createdAt,value
2022-10-04T00:00:34.501Z,865.1
2022-10-04T00:02:18.201Z,866.5
2022-10-04T00:04:01.897Z,864.7
2022-10-04T00:05:45.562Z,865.4
2022-10-04T00:07:29.260Z,862.6
2022-10-04T00:09:12.973Z,857.9
2022-10-04T00:10:56.715Z,853
2022-10-04T00:12:40.421Z,849.6
2022-10-04T00:14:24.080Z,843.9
2022-10-04T00:16:07.771Z,842.2
2022-10-04T00:17:51.483Z,840.5
2022-10-04T00:21:18.919Z,837
2022-10-04T00:23:02.590Z,834.8
2022-10-04T00:24:46.298Z,828.6
2022-10-04T00:26:30.011Z,824.5
2022-10-04T00:28:13.685Z,819.4
2022-10-04T00:29:57.442Z,818.4
2022-10-04T00:31:41.116Z,818.7
2022-10-04T00:33:24.802Z,815.9
2022-10-04T00:35:08.485Z,815
2022-10-04T00:36:52.200Z,813.4
2022-10-04T00:38:35.890Z,814.2
2022-10-04T00:40:19.647Z,814
2022-10-04T00:42:03.334Z,810.3
2022-10-04T00:43:47.029Z,804.4
2022-10-04T00:45:30.708Z,800.2
2022-10-04T00:47:14.407Z,796.9
2022-10-04T00:48:58.172Z,796.2
2022-10-04T00:50:41.849Z,796.1
2022-10-04T00:52:25.535Z,793.7
2022-10-04T00:54:09.331Z,791.9
2022-10-04T00:55:52.940Z,790.5
2022-10-04T00:57:36.623Z,787
2022-10-04T00:59:20.382Z,785
2022-10-04T01:01:04.051Z,784.2
2022-10-04T01:02:47.735Z,783
2022-10-04T01:04:31.457Z,779.9
2022-10-04T01:06:15.156Z,774.9
2022-10-04T01:07:58.902Z,772.4
2022-10-04T01:09:42.587Z,771
2022-10-04T01:11:26.258Z,767.9
2022-10-04T01:13:09.973Z,767.1
2022-10-04T01:14:53.635Z,764
2022-10-04T01:16:37.344Z,758.7
2022-10-04T01:18:21.112Z,758.8
2022-10-04T01:20:04.807Z,760.8
2022-10-04T01:21:48.486Z,760.4
2022-10-04T01:23:32.156Z,757.9
2022-10-04T01:25:15.866Z,756.6
2022-10-04T01:26:59.556Z,755.7
2022-10-04T01:28:43.309Z,753.3
2022-10-04T01:30:27.006Z,747.5
2022-10-04T01:32:10.697Z,746.9
2022-10-04T01:33:54.351Z,743.6
2022-10-04T01:35:38.058Z,740.3
2022-10-04T01:37:21.828Z,739.4
2022-10-04T01:39:05.540Z,736.5
2022-10-04T01:40:49.201Z,735.1
2022-10-04T01:42:32.879Z,735.2
2022-10-04T01:44:16.578Z,731.7
2022-10-04T01:46:00.266Z,726.9
2022-10-04T01:47:43.965Z,721
2022-10-04T01:49:27.783Z,722.3
2022-10-04T01:51:11.403Z,725.8
2022-10-04T01:52:55.089Z,725.7
2022-10-04T01:54:38.818Z,725.2
2022-10-04T01:56:22.490Z,721
2022-10-04T01:58:06.298Z,719.5
2022-10-04T01:59:49.921Z,716.5
2022-10-04T02:01:33.638Z,716.6
2022-10-04T02:03:17.307Z,719.3
2022-10-04T02:05:01.009Z,716.8
2022-10-04T02:06:44.711Z,715.3
2022-10-04T02:08:28.446Z,713.6
2022-10-04T02:10:12.145Z,711.6
2022-10-04T02:11:55.814Z,705
2022-10-04T02:13:39.547Z,704.2
2022-10-04T02:15:23.229Z,700
2022-10-04T02:17:06.975Z,696.9
2022-10-04T02:18:50.729Z,695.5
2022-10-04T02:20:34.336Z,692.7
2022-10-04T02:22:18.048Z,693.7
2022-10-04T02:24:01.731Z,695.4
2022-10-04T02:25:45.493Z,695.6
2022-10-04T02:27:29.177Z,697.4
2022-10-04T02:29:12.855Z,697.6
2022-10-04T02:30:56.544Z,698.3
2022-10-04T02:32:40.241Z,696.9
2022-10-04T02:34:23.964Z,694.7
2022-10-04T02:36:07.701Z,692.7
2022-10-04T02:37:51.378Z,686.6
2022-10-04T02:39:35.096Z,685.8
2022-10-04T02:41:18.741Z,686.5
2022-10-04T02:43:02.460Z,685.2
2022-10-04T02:44:46.176Z,682.2
2022-10-04T02:46:29.838Z,676.3
2022-10-04T02:48:13.590Z,675.2
2022-10-04T02:49:57.265Z,673.4
2022-10-04T02:51:40.958Z,670.7
2022-10-04T02:53:24.701Z,670.9
2022-10-04T02:55:08.351Z,671.9
2022-10-04T02:56:52.115Z,670.8
2022-10-04T02:58:35.787Z,667.3
2022-10-04T03:00:19.572Z,666.7
2022-10-04T03:02:03.176Z,665.7
2022-10-04T03:03:46.877Z,666.1
2022-10-04T03:05:30.631Z,663.8
2022-10-04T03:07:14.312Z,661.9
2022-10-04T03:08:58.016Z,661.5
2022-10-04T03:10:41.707Z,658.4
2022-10-04T03:12:25.383Z,656.8
2022-10-04T03:14:09.196Z,654.3
2022-10-04T03:15:52.838Z,652.2
2022-10-04T03:17:36.519Z,649.2
2022-10-04T03:19:20.198Z,644.5
2022-10-04T03:21:03.891Z,646.2
2022-10-04T03:22:47.585Z,646.6
2022-10-04T03:24:31.298Z,646.1
2022-10-04T03:26:15.056Z,645.3
2022-10-04T03:27:58.736Z,644.3
2022-10-04T03:29:42.410Z,642.9
2022-10-04T03:31:26.088Z,642
2022-10-04T03:33:10.045Z,640.1
2022-10-04T03:34:53.505Z,638.7
2022-10-04T03:36:37.307Z,638.5
2022-10-04T03:38:20.955Z,634.5
2022-10-04T03:40:04.610Z,631.1
2022-10-04T03:41:48.312Z,630.6
2022-10-04T03:43:32.018Z,630.9
2022-10-04T03:45:15.695Z,629
2022-10-04T03:46:59.449Z,627.5
2022-10-04T03:48:43.169Z,624.7
2022-10-04T03:50:26.836Z,623
2022-10-04T03:52:10.499Z,621.4
2022-10-04T03:53:54.212Z,616.7
2022-10-04T03:55:37.982Z,618.1
2022-10-04T03:57:21.657Z,617.3
2022-10-04T03:59:05.342Z,615.6
2022-10-04T04:00:49.049Z,616.9
2022-10-04T04:02:32.732Z,618.2
2022-10-04T04:04:16.450Z,614.2
2022-10-04T04:06:00.190Z,615.1
2022-10-04T04:07:43.860Z,616.1
2022-10-04T04:09:27.547Z,614.3
2022-10-04T04:11:11.316Z,612.9
2022-10-04T04:12:55.022Z,610.8
2022-10-04T04:14:38.705Z,614.1
2022-10-04T04:16:22.390Z,611.3
2022-10-04T04:18:06.078Z,611.9
2022-10-04T04:19:49.765Z,611.4
2022-10-04T04:21:33.477Z,611.7
2022-10-04T04:23:17.233Z,610.2
2022-10-04T04:25:00.911Z,613.6
2022-10-04T04:26:44.593Z,615.6
2022-10-04T04:28:28.277Z,615.6
2022-10-04T04:30:11.975Z,612.4
2022-10-04T04:31:55.675Z,611.1
2022-10-04T04:33:39.464Z,608.7
2022-10-04T04:35:23.127Z,605.4
2022-10-04T04:37:06.825Z,604.8
2022-10-04T04:38:50.493Z,601.5
2022-10-04T04:40:34.197Z,600.7
2022-10-04T04:42:17.867Z,599.7
2022-10-04T04:44:01.698Z,597.1
2022-10-04T04:45:45.330Z,596
2022-10-04T04:47:29.002Z,594.2
2022-10-04T04:49:12.691Z,593.6
2022-10-04T04:50:56.404Z,590.8
2022-10-04T04:52:40.173Z,593.6
2022-10-04T04:54:23.862Z,594.3
2022-10-04T04:56:07.529Z,594
2022-10-04T04:57:51.208Z,592.1
2022-10-04T04:59:34.910Z,592.8
2022-10-04T05:01:18.617Z,592
2022-10-04T05:03:02.373Z,588.2
2022-10-04T05:04:46.058Z,586.3
2022-10-04T05:06:29.732Z,586.1
2022-10-04T05:08:13.430Z,584.3
2022-10-04T05:09:57.137Z,588.2
2022-10-04T05:11:40.817Z,589.3
2022-10-04T05:13:24.644Z,587.9
2022-10-04T05:15:08.255Z,584.6
2022-10-04T05:16:51.938Z,582
2022-10-04T05:18:35.648Z,578.5
2022-10-04T05:20:19.342Z,578.7
2022-10-04T05:22:03.045Z,579.2
2022-10-04T05:23:46.781Z,579.3
2022-10-04T05:25:30.459Z,580.1
2022-10-04T05:27:14.140Z,582
2022-10-04T05:28:57.845Z,581.8
2022-10-04T05:30:41.541Z,580.2
2022-10-04T05:32:25.326Z,579.2
2022-10-04T05:34:08.983Z,580.1
2022-10-04T05:35:52.668Z,580.2
2022-10-04T05:37:36.361Z,581.2
2022-10-04T05:39:20.081Z,584.4
2022-10-04T05:41:03.805Z,587.7
2022-10-04T05:42:47.530Z,585.4
2022-10-04T05:44:31.196Z,582.4
2022-10-04T05:46:14.869Z,583
2022-10-04T05:47:58.616Z,582
2022-10-04T05:49:42.277Z,583
2022-10-04T05:51:26.007Z,582.9
2022-10-04T05:53:09.712Z,582.5
2022-10-04T05:54:53.400Z,581.1
2022-10-04T05:56:37.120Z,582.2
2022-10-04T05:58:20.773Z,582.4
2022-10-04T06:00:04.462Z,580.4
2022-10-04T06:01:48.148Z,582.5
2022-10-04T06:03:31.913Z,581.7
2022-10-04T06:05:15.609Z,580.4
2022-10-04T06:06:59.278Z,579.9
2022-10-04T06:08:43.061Z,576.7
2022-10-04T06:10:26.688Z,573.9
2022-10-04T06:12:10.389Z,571
2022-10-04T06:13:54.162Z,571.8
2022-10-04T06:15:37.802Z,576.1
2022-10-04T06:17:21.485Z,577.8
2022-10-04T06:19:05.256Z,578.5
2022-10-04T06:20:48.908Z,577.3
2022-10-04T06:22:32.586Z,573
2022-10-04T06:24:16.333Z,576
2022-10-04T06:26:00.025Z,574.3
2022-10-04T06:27:43.749Z,574
2022-10-04T06:29:27.429Z,572.4
2022-10-04T06:31:11.096Z,572
2022-10-04T06:32:54.871Z,573.6
2022-10-04T06:34:38.663Z,574.4
2022-10-04T06:36:22.216Z,575.7
2022-10-04T06:38:05.983Z,573.6
2022-10-04T06:39:49.625Z,567.9
2022-10-04T06:41:33.424Z,566.1
2022-10-04T06:43:17.081Z,563.1
2022-10-04T06:45:00.739Z,560.6
2022-10-04T06:46:44.445Z,561.3
2022-10-04T06:48:28.133Z,561
2022-10-04T06:50:11.825Z,561.2
2022-10-04T06:51:55.518Z,561.4
2022-10-04T06:53:39.271Z,558
2022-10-04T06:55:22.942Z,556.5
2022-10-04T06:57:06.632Z,556.6
2022-10-04T06:58:50.391Z,555.9
2022-10-04T07:00:34.025Z,555.9
2022-10-04T07:02:17.788Z,558
2022-10-04T07:04:01.494Z,559.5
2022-10-04T07:05:45.198Z,558
2022-10-04T07:07:28.863Z,557.6
2022-10-04T07:09:12.531Z,557.8
2022-10-04T07:10:56.251Z,559.3
2022-10-04T07:12:40.013Z,566.2
2022-10-04T07:14:23.725Z,571.3
2022-10-04T07:16:07.369Z,570.8
2022-10-04T07:17:51.049Z,571.6
2022-10-04T07:19:34.748Z,572.4
2022-10-04T07:21:18.536Z,572
2022-10-04T07:23:02.194Z,573.4
2022-10-04T07:24:45.888Z,596.3
2022-10-04T07:26:29.559Z,619.4
2022-10-04T07:28:13.236Z,624.9
2022-10-04T07:29:56.954Z,625.4
2022-10-04T07:31:40.647Z,620.4
2022-10-04T07:33:24.410Z,617.3
2022-10-04T07:35:08.120Z,612.9
2022-10-04T07:36:51.765Z,609.7
2022-10-04T07:38:35.458Z,605.4
2022-10-04T07:40:19.202Z,602
2022-10-04T07:42:02.964Z,602.5
2022-10-04T07:43:46.606Z,602
2022-10-04T07:45:30.325Z,598.1
2022-10-04T07:47:13.969Z,595.5
2022-10-04T07:48:57.717Z,594.6
2022-10-04T07:50:41.379Z,595.3
2022-10-04T07:52:25.165Z,594.2
2022-10-04T07:54:08.831Z,593.1
2022-10-04T07:55:52.500Z,593.5
2022-10-04T07:57:36.210Z,594
2022-10-04T07:59:19.905Z,592.1
2022-10-04T08:01:03.586Z,589.5
2022-10-04T08:02:47.339Z,586.8
2022-10-04T08:04:31.026Z,587.8
2022-10-04T08:06:14.699Z,589.2
2022-10-04T08:07:58.399Z,592.2
2022-10-04T08:09:42.104Z,589.1
2022-10-04T08:11:25.901Z,588.6
2022-10-04T08:13:09.653Z,590.2
2022-10-04T08:14:53.247Z,588.6
2022-10-04T08:16:37.065Z,586.1
2022-10-04T08:18:20.622Z,585.9
2022-10-04T08:20:04.291Z,585.3
2022-10-04T08:21:48.065Z,584.9
2022-10-04T08:23:31.746Z,583.8
2022-10-04T08:25:15.427Z,582.7
2022-10-04T08:26:59.195Z,584.2
2022-10-04T08:28:42.814Z,586.6
2022-10-04T08:30:26.518Z,585.1
2022-10-04T08:32:10.339Z,585.4
2022-10-04T08:33:53.957Z,587.5
2022-10-04T08:35:37.659Z,587.9
2022-10-04T08:37:21.357Z,584.2
2022-10-04T08:39:05.113Z,584.4
2022-10-04T08:40:48.745Z,583
2022-10-04T08:42:32.511Z,584.1
2022-10-04T08:44:16.172Z,583
2022-10-04T08:45:59.844Z,581.5
2022-10-04T08:47:43.542Z,581.6
2022-10-04T08:49:27.242Z,580.7
2022-10-04T08:51:11.041Z,582.8
2022-10-04T08:52:54.723Z,581.6
2022-10-04T08:54:38.357Z,580.6
2022-10-04T08:56:22.074Z,580.7
2022-10-04T08:58:05.770Z,584.8
2022-10-04T08:59:49.506Z,587.2
2022-10-04T09:01:33.206Z,585.5
2022-10-04T09:03:16.885Z,581.2
2022-10-04T09:05:00.571Z,580.1
2022-10-04T09:06:44.269Z,578.9
2022-10-04T09:08:28.026Z,580.8
2022-10-04T09:10:11.648Z,580.6
2022-10-04T09:11:55.352Z,580.7
2022-10-04T09:13:39.118Z,578.7
2022-10-04T09:15:22.769Z,582
2022-10-04T09:17:06.488Z,585.8
2022-10-04T09:18:50.145Z,587.2
2022-10-04T09:20:33.890Z,588.2
2022-10-04T09:22:17.615Z,591.1
2022-10-04T09:24:01.298Z,594.6
2022-10-04T09:25:44.978Z,597
2022-10-04T09:27:28.660Z,601.7
2022-10-04T09:29:12.406Z,602.6
2022-10-04T09:30:56.066Z,606.5
2022-10-04T09:32:39.755Z,607.9
2022-10-04T09:34:23.608Z,610.7
2022-10-04T09:36:07.186Z,609.9
2022-10-04T09:37:50.891Z,611.2
2022-10-04T09:39:34.585Z,616
2022-10-04T09:41:18.282Z,616.6
2022-10-04T09:43:02.021Z,617
2022-10-04T09:44:45.703Z,617.2
2022-10-04T09:46:29.389Z,622.2
2022-10-04T09:48:13.113Z,627
2022-10-04T09:49:56.791Z,633.1
2022-10-04T09:51:40.553Z,640.3
2022-10-04T09:53:24.305Z,647.5
2022-10-04T09:55:07.929Z,653.4
2022-10-04T09:56:51.721Z,659.4
2022-10-04T09:58:35.329Z,672.1
2022-10-04T10:00:19.038Z,744.4
2022-10-04T10:02:02.793Z,756.7
2022-10-04T10:03:46.435Z,772.9
2022-10-04T10:05:30.152Z,846.7
2022-10-04T10:07:13.793Z,885
2022-10-04T10:08:57.503Z,894.3
2022-10-04T10:10:41.202Z,897.3
2022-10-04T10:12:25.015Z,891.4
2022-10-04T10:14:08.636Z,884
2022-10-04T10:15:52.322Z,884.2
2022-10-04T10:17:36.130Z,882.1
2022-10-04T10:19:19.733Z,885.4
2022-10-04T10:21:03.431Z,892
2022-10-04T10:22:47.235Z,903.5
2022-10-04T10:24:30.900Z,906
2022-10-04T10:26:14.531Z,908.3
2022-10-04T10:27:58.287Z,911.8
2022-10-04T10:29:42.043Z,918.9
2022-10-04T10:31:25.692Z,901.6
2022-10-04T10:33:09.367Z,894.6
2022-10-04T10:34:53.081Z,891.1
2022-10-04T10:36:36.833Z,879.2
2022-10-04T10:38:20.470Z,870.8
2022-10-04T10:40:04.242Z,868.9
2022-10-04T10:41:47.895Z,862.2
2022-10-04T10:43:31.572Z,852
2022-10-04T10:45:15.277Z,845.4
2022-10-04T10:46:58.978Z,842.3
2022-10-04T10:48:42.761Z,844.1
2022-10-04T10:50:26.415Z,841
2022-10-04T10:52:10.099Z,843.1
2022-10-04T10:53:53.790Z,846.8
2022-10-04T10:55:37.491Z,847.8
2022-10-04T10:57:21.205Z,847.2
2022-10-04T10:59:04.939Z,846.7
2022-10-04T11:00:48.662Z,845.3
2022-10-04T11:02:32.295Z,847.6
2022-10-04T11:04:16.002Z,850.2
2022-10-04T11:05:59.707Z,851.2
2022-10-04T11:07:43.516Z,850
2022-10-04T11:09:27.200Z,843.9
2022-10-04T11:11:10.864Z,850.5
2022-10-04T11:12:54.520Z,856.8
2022-10-04T11:14:38.218Z,861.6
2022-10-04T11:16:21.918Z,867.9
2022-10-04T11:18:05.674Z,867.9
2022-10-04T11:21:33.113Z,893.9
2022-10-04T11:23:16.723Z,933
2022-10-04T11:25:00.414Z,937.8
2022-10-04T11:26:44.136Z,945.4
2022-10-04T11:28:27.913Z,951.9
2022-10-04T11:30:11.555Z,975.5
2022-10-04T11:31:55.239Z,983.8
2022-10-04T11:33:38.973Z,982.5
2022-10-04T11:35:22.628Z,983
2022-10-04T11:37:06.400Z,988.5
2022-10-04T11:38:50.118Z,990.7
2022-10-04T11:40:33.782Z,993.7
2022-10-04T11:42:17.449Z,999.2
2022-10-04T11:44:01.186Z,1000.3
2022-10-04T11:45:44.831Z,1007
2022-10-04T11:47:28.602Z,1013.4
2022-10-04T11:49:12.339Z,1013.6
2022-10-04T11:50:56.028Z,1013
2022-10-04T11:52:39.677Z,1010.3
2022-10-04T11:54:23.347Z,1013.3
2022-10-04T11:56:07.053Z,1015.4
2022-10-04T11:57:50.809Z,1022
2022-10-04T11:59:34.497Z,1025.4
2022-10-04T12:01:18.170Z,1024
2022-10-04T12:03:01.959Z,1025.2
2022-10-04T12:04:45.658Z,1030.9
2022-10-04T12:06:29.285Z,1036.9
2022-10-04T12:08:13.084Z,1039.4
2022-10-04T12:09:56.695Z,1040.9
2022-10-04T12:11:40.384Z,1040.2
2022-10-04T12:13:24.155Z,1034.1
2022-10-04T12:15:07.783Z,1024.3
2022-10-04T12:16:51.566Z,1024.4
2022-10-04T12:18:35.252Z,1026.3
2022-10-04T12:20:18.897Z,1027.8
2022-10-04T12:22:02.657Z,1029.1
2022-10-04T12:23:46.299Z,1028.8
2022-10-04T12:25:30.064Z,1029.8
2022-10-04T12:27:13.819Z,1028.5
2022-10-04T12:28:57.452Z,1030.9
2022-10-04T12:30:41.160Z,1037.4
2022-10-04T12:32:24.838Z,1040.1
2022-10-04T12:34:08.582Z,1043.8
2022-10-04T12:35:52.395Z,1047.9
2022-10-04T12:37:36.035Z,1048.5
2022-10-04T12:39:19.773Z,1048.8
2022-10-04T12:41:03.375Z,1049
2022-10-04T12:42:47.126Z,1050.7
2022-10-04T12:44:30.797Z,1054.7
2022-10-04T12:46:14.497Z,1051.7
2022-10-04T12:47:58.206Z,1048
2022-10-04T12:49:41.989Z,1047.2
2022-10-04T12:51:25.606Z,1051
2022-10-04T12:53:09.313Z,1050.7
2022-10-04T12:54:53.021Z,1048.8
2022-10-04T12:56:36.786Z,1045.5
2022-10-04T12:58:20.398Z,1042.6
2022-10-04T13:00:04.163Z,1036.6
2022-10-04T13:01:47.836Z,1032.8
2022-10-04T13:03:31.544Z,1027
2022-10-04T13:05:15.216Z,1024
2022-10-04T13:06:59.019Z,1029.4
2022-10-04T13:08:42.697Z,1031.2
2022-10-04T13:10:26.368Z,1033.2
2022-10-04T13:12:10.067Z,1029.2
2022-10-04T13:13:53.750Z,1026.8
2022-10-04T13:15:37.425Z,1029.5
2022-10-04T13:17:21.122Z,1024.8
2022-10-04T13:19:04.884Z,1019.8
2022-10-04T13:20:48.571Z,1018.9
2022-10-04T13:22:32.252Z,1021
2022-10-04T13:24:15.987Z,1026.5
2022-10-04T13:25:59.633Z,1028.1
2022-10-04T13:27:43.338Z,1031.4
2022-10-04T13:29:27.115Z,1035.1
2022-10-04T13:31:10.771Z,1039.6
2022-10-04T13:32:54.588Z,1045.3
2022-10-04T13:34:38.157Z,1053
2022-10-04T13:36:21.932Z,1055
2022-10-04T13:38:05.621Z,1060.8
2022-10-04T13:39:49.295Z,1062.1
2022-10-04T13:41:33.162Z,1066.9
2022-10-04T13:43:16.764Z,1069.6
2022-10-04T13:45:00.479Z,1078.3
2022-10-04T13:46:44.190Z,1081.1
2022-10-04T13:48:27.882Z,1090.6
2022-10-04T13:50:11.510Z,1099.4
2022-10-04T13:51:55.241Z,1110.4
2022-10-04T13:53:38.919Z,1114.1
2022-10-04T13:55:22.662Z,1115.1
2022-10-04T13:57:06.351Z,1118.4
2022-10-04T13:58:50.052Z,1116.6
2022-10-04T14:00:33.714Z,1115.4
2022-10-04T14:02:17.435Z,1117.5
2022-10-04T14:04:01.108Z,1118.7
2022-10-04T14:05:44.878Z,1120.9
2022-10-04T14:07:28.550Z,1123.3
2022-10-04T14:09:12.231Z,1124
2022-10-04T14:10:55.915Z,1126.9
2022-10-04T14:12:39.648Z,1127.7
2022-10-04T14:14:23.435Z,1129.5
2022-10-04T14:16:07.112Z,1134.7
2022-10-04T14:17:50.768Z,1135.7
2022-10-04T14:19:34.479Z,1134.5
2022-10-04T14:21:18.138Z,1135.3
2022-10-04T14:23:01.833Z,1129
2022-10-04T14:24:45.643Z,1126.6
2022-10-04T14:26:29.302Z,1125.4
2022-10-04T14:28:12.972Z,1121.4
2022-10-04T14:29:56.675Z,1115.6
2022-10-04T14:31:40.472Z,1109.4
2022-10-04T14:33:24.066Z,1102.9
2022-10-04T14:35:07.803Z,1098
2022-10-04T14:36:51.483Z,1095.6
2022-10-04T14:38:35.190Z,1096.3
2022-10-04T14:40:18.893Z,1101.5
2022-10-04T14:42:02.575Z,1103.7
2022-10-04T14:43:46.340Z,1102.4
2022-10-04T14:45:30.007Z,1098.9
2022-10-04T14:47:13.685Z,1096.7
2022-10-04T14:48:57.392Z,1097.6
2022-10-04T14:50:41.089Z,1094.6
2022-10-04T14:52:24.867Z,1093
2022-10-04T14:54:08.535Z,1086.2
2022-10-04T14:55:52.213Z,1080.7
2022-10-04T14:57:35.935Z,1078.8
2022-10-04T14:59:19.617Z,1074.6
2022-10-04T15:01:03.371Z,1075.6
2022-10-04T15:02:47.105Z,1077.4
2022-10-04T15:04:30.743Z,1077.4
2022-10-04T15:06:14.427Z,1088.2
2022-10-04T15:07:58.132Z,1100.6
2022-10-04T15:09:41.872Z,1104.6
2022-10-04T15:11:25.644Z,1108.2
2022-10-04T15:13:09.295Z,1112.1
2022-10-04T15:14:52.956Z,1111.5
2022-10-04T15:16:36.737Z,1114.4
2022-10-04T15:18:20.456Z,1113.9
2022-10-04T15:20:04.117Z,1114.9
2022-10-04T15:21:47.812Z,1114.6
2022-10-04T15:23:31.472Z,1118.1
2022-10-04T15:25:15.174Z,1122.1
2022-10-04T15:26:58.878Z,1128.8
2022-10-04T15:28:42.673Z,1136
2022-10-04T15:30:26.308Z,1135.8
2022-10-04T15:32:09.992Z,1136.5
2022-10-04T15:33:53.674Z,1133.5
2022-10-04T15:35:37.387Z,1132.7
2022-10-04T15:37:21.156Z,1134.3
2022-10-04T15:39:04.842Z,1133.3
2022-10-04T15:40:48.515Z,1131.1
2022-10-04T15:42:32.282Z,1132.3
2022-10-04T15:44:15.949Z,1131.2
2022-10-04T15:45:59.673Z,1130.3
2022-10-04T15:47:43.439Z,1128.9
2022-10-04T15:49:27.042Z,1127.6
2022-10-04T15:51:10.732Z,1130.1
2022-10-04T15:52:54.456Z,1133.6
2022-10-04T15:54:38.129Z,1134.5
2022-10-04T15:56:21.914Z,1141.8
2022-10-04T15:58:05.560Z,1150.4
2022-10-04T15:59:49.262Z,1158.3
2022-10-04T16:01:32.924Z,1164.5
2022-10-04T16:03:16.645Z,1165.6
2022-10-04T16:05:00.413Z,1169.9
2022-10-04T16:06:44.164Z,1173.8
2022-10-04T16:08:27.767Z,1177.2
2022-10-04T16:10:11.508Z,1179.4
2022-10-04T16:11:55.187Z,1181.3
2022-10-04T16:13:38.835Z,1184.6
2022-10-04T16:15:22.528Z,1184.3
2022-10-04T16:17:06.342Z,1188.5
2022-10-04T16:18:50.047Z,1190.5
2022-10-04T16:20:33.677Z,1193.5
2022-10-04T16:22:17.332Z,1195.8
2022-10-04T16:24:01.077Z,1198.2
2022-10-04T16:25:44.774Z,1202.7
2022-10-04T16:27:28.498Z,1210.3
2022-10-04T16:29:12.171Z,1215.4
2022-10-04T16:30:55.857Z,1215.3
2022-10-04T16:32:39.555Z,1210.6
2022-10-04T16:34:23.262Z,1211.7
2022-10-04T16:36:07.030Z,1213.3
2022-10-04T16:37:50.703Z,1212.9
2022-10-04T16:39:34.437Z,1210.2
2022-10-04T16:41:18.102Z,1212.4
2022-10-04T16:43:01.872Z,1215.1
2022-10-04T16:44:45.460Z,1219.1
2022-10-04T16:46:29.154Z,1221.7
2022-10-04T16:48:12.982Z,1223.7
2022-10-04T16:49:56.582Z,1221.8
2022-10-04T16:51:40.275Z,1214.7
2022-10-04T16:53:23.979Z,1218.5
2022-10-04T16:55:07.671Z,1223
2022-10-04T16:56:51.551Z,1221.2
2022-10-04T16:58:35.110Z,1219.8
2022-10-04T17:00:18.805Z,1218
2022-10-04T17:02:02.529Z,1220.6
2022-10-04T17:03:46.174Z,1224.3
2022-10-04T17:05:29.860Z,1223.7
2022-10-04T17:07:13.691Z,1225.2
2022-10-04T17:08:57.318Z,1224.5
2022-10-04T17:10:40.994Z,1225.6
2022-10-04T17:12:24.695Z,1228.9
2022-10-04T17:14:08.399Z,1234.7
2022-10-04T17:15:52.098Z,1233.1
2022-10-04T17:17:35.859Z,1231.7
2022-10-04T17:19:19.621Z,1232.5
2022-10-04T17:21:03.204Z,1234.6
2022-10-04T17:22:46.920Z,1235.3
2022-10-04T17:24:30.588Z,1233.4
2022-10-04T17:26:14.271Z,1236
2022-10-04T17:27:57.962Z,1233.7
2022-10-04T17:29:41.742Z,1222.1
2022-10-04T17:31:25.402Z,1216
2022-10-04T17:33:09.164Z,1212.1
2022-10-04T17:34:52.892Z,1212.6
2022-10-04T17:36:36.496Z,1208.4
2022-10-04T17:38:20.312Z,1205.6
2022-10-04T17:40:03.948Z,1202.1
2022-10-04T17:41:47.619Z,1198.1
2022-10-04T17:43:31.300Z,1195.6
2022-10-04T17:45:15.013Z,1191.8
2022-10-04T17:46:58.765Z,1186.8
2022-10-04T17:48:42.455Z,1179.1
2022-10-04T17:50:26.148Z,1174.8
2022-10-04T17:52:09.837Z,1173.1
2022-10-04T17:53:53.530Z,1173.8
2022-10-04T17:55:37.235Z,1171.3
2022-10-04T17:57:20.915Z,1167.5
2022-10-04T17:59:04.660Z,1163.5
2022-10-04T18:00:48.338Z,1162.6
2022-10-04T18:02:32.031Z,1161.4
2022-10-04T18:04:15.753Z,1162.2
2022-10-04T18:05:59.446Z,1162.2
2022-10-04T18:07:43.191Z,1162.4
2022-10-04T18:09:26.868Z,1156.6
2022-10-04T18:11:10.553Z,1154.4
2022-10-04T18:12:54.319Z,1147.9
2022-10-04T18:14:37.973Z,1148.2
2022-10-04T18:16:21.626Z,1151.5
2022-10-04T18:18:05.323Z,1159.5
2022-10-04T18:19:49.105Z,1165.8
2022-10-04T18:21:32.782Z,1176.4
2022-10-04T18:23:16.440Z,1183.5
2022-10-04T18:25:00.168Z,1183.2
2022-10-04T18:26:43.919Z,1184.4
2022-10-04T18:28:27.596Z,1188.6
2022-10-04T18:30:11.280Z,1192.8
2022-10-04T18:31:54.971Z,1195
2022-10-04T18:33:38.657Z,1192.3
2022-10-04T18:35:22.366Z,1193.3
2022-10-04T18:37:06.141Z,1201.5
2022-10-04T18:38:49.799Z,1208
2022-10-04T18:40:33.507Z,1211.9
2022-10-04T18:42:17.167Z,1217.8
2022-10-04T18:44:00.873Z,1225
2022-10-04T18:45:44.574Z,1232.2
2022-10-04T18:47:28.329Z,1234.9
2022-10-04T18:49:12.039Z,1237.3
2022-10-04T18:50:55.697Z,1241.2
2022-10-04T18:52:39.419Z,1240.7
2022-10-04T18:54:23.095Z,1242
2022-10-04T18:56:06.847Z,1243.3
2022-10-04T18:57:50.526Z,1242.5
2022-10-04T18:59:34.209Z,1240.3
2022-10-04T19:01:17.997Z,1239.4
2022-10-04T19:03:01.606Z,1238.9
2022-10-04T19:04:45.317Z,1238.9
2022-10-04T19:06:29.083Z,1242
2022-10-04T19:08:12.731Z,1243.7
2022-10-04T19:09:56.434Z,1245.5
2022-10-04T19:11:40.128Z,1245.7
2022-10-04T19:13:23.894Z,1247.1
2022-10-04T19:15:07.590Z,1249.1
2022-10-04T19:16:51.253Z,1252.2
2022-10-04T19:18:35.011Z,1250.2
2022-10-04T19:20:18.665Z,1248.4
2022-10-04T19:22:02.369Z,1244.1
2022-10-04T19:23:46.101Z,1242.3
2022-10-04T19:25:29.784Z,1241.3
2022-10-04T19:27:13.466Z,1235.6
2022-10-04T19:28:57.159Z,1235.6
2022-10-04T19:30:40.958Z,1239.7
2022-10-04T19:32:24.602Z,1239.2
2022-10-04T19:34:08.300Z,1240
2022-10-04T19:35:52.049Z,1242
2022-10-04T19:37:35.716Z,1242.3
2022-10-04T19:39:19.373Z,1241
2022-10-04T19:41:03.082Z,1237.7
2022-10-04T19:42:46.925Z,1233.9
2022-10-04T19:44:30.542Z,1231.6
2022-10-04T19:46:14.202Z,1232.6
2022-10-04T19:47:57.911Z,1237.7
2022-10-04T19:49:41.633Z,1243.7
2022-10-04T19:51:25.350Z,1242.7
2022-10-04T19:53:09.035Z,1244.3
2022-10-04T19:54:52.714Z,1243.9
2022-10-04T19:56:36.448Z,1240.7
2022-10-04T19:58:20.101Z,1230.4
2022-10-04T20:00:03.804Z,1225.5
2022-10-04T20:01:47.613Z,1225.9
2022-10-04T20:03:31.310Z,1225.8
2022-10-04T20:05:14.928Z,1226.5
2022-10-04T20:06:58.601Z,1226.5
2022-10-04T20:08:42.336Z,1226.1
2022-10-04T20:10:26.015Z,1224
2022-10-04T20:12:09.771Z,1224.3
2022-10-04T20:13:53.441Z,1225.2
2022-10-04T20:15:37.124Z,1230.9
2022-10-04T20:17:20.821Z,1233.6
2022-10-04T20:19:04.535Z,1230.2
2022-10-04T20:20:48.226Z,1231.9
2022-10-04T20:22:31.973Z,1229.8
2022-10-04T20:24:15.666Z,1228
2022-10-04T20:25:59.380Z,1227
2022-10-04T20:27:43.036Z,1223.3
2022-10-04T20:29:26.735Z,1225.4
2022-10-04T20:31:10.423Z,1225.4
2022-10-04T20:32:54.172Z,1225.3
2022-10-04T20:34:37.852Z,1227
2022-10-04T20:36:21.537Z,1224.6
2022-10-04T20:38:05.251Z,1222.5
2022-10-04T20:39:48.977Z,1223.2
2022-10-04T20:41:32.831Z,1221.4
2022-10-04T20:43:16.376Z,1221.9
2022-10-04T20:45:00.073Z,1216.9
2022-10-04T20:46:43.765Z,1216.3
2022-10-04T20:48:27.465Z,1218.4
2022-10-04T20:50:11.149Z,1221.1
2022-10-04T20:51:54.937Z,1220.9
2022-10-04T20:53:38.579Z,1219.7
2022-10-04T20:55:22.268Z,1221.2
2022-10-04T20:57:05.967Z,1216.8
2022-10-04T20:58:49.659Z,1216.3
2022-10-04T21:00:33.428Z,1215.1
2022-10-04T21:02:17.109Z,1215.9
2022-10-04T21:04:00.792Z,1217.9
2022-10-04T21:05:44.512Z,1218.8
2022-10-04T21:07:28.167Z,1220.7
2022-10-04T21:09:11.873Z,1218.9
2022-10-04T21:10:55.665Z,1218.6
2022-10-04T21:12:39.352Z,1219.5
2022-10-04T21:14:23.080Z,1219.5
2022-10-04T21:16:06.710Z,1216
2022-10-04T21:17:50.364Z,1215.1
2022-10-04T21:19:34.132Z,1216.1
2022-10-04T21:21:17.834Z,1216.3
2022-10-04T21:23:01.513Z,1216.4
2022-10-04T21:24:45.222Z,1211.8
2022-10-04T21:26:28.880Z,1213.4
2022-10-04T21:28:12.577Z,1217.3
2022-10-04T21:29:56.291Z,1220.2
2022-10-04T21:31:40.164Z,1222.5
2022-10-04T21:33:23.769Z,1224.7
2022-10-04T21:35:07.414Z,1222.5
2022-10-04T21:36:51.086Z,1226.8
2022-10-04T21:38:34.778Z,1225.7
2022-10-04T21:40:18.469Z,1207.5
2022-10-04T21:42:02.201Z,1197.7
2022-10-04T21:43:45.936Z,1190.6
2022-10-04T21:45:29.695Z,1185.9
2022-10-04T21:47:13.298Z,1179.9
2022-10-04T21:48:56.988Z,1174.1
2022-10-04T21:50:41.014Z,1172.3
2022-10-04T21:52:24.466Z,1167.4
2022-10-04T21:54:08.134Z,1161.4
2022-10-04T21:55:51.854Z,1157.9
2022-10-04T21:57:35.546Z,1152.1
2022-10-04T21:59:19.213Z,1148.8
2022-10-04T22:01:02.986Z,1145
2022-10-04T22:02:46.652Z,1138.9
2022-10-04T22:04:30.338Z,1134.5
2022-10-04T22:06:14.019Z,1129.6
2022-10-04T22:07:57.749Z,1125.6